createdAt,value
2022-10-17T00:03:57.222Z,12.7
2022-10-17T00:13:57.561Z,12.6
2022-10-17T00:23:58.312Z,12.6
2022-10-17T00:33:58.858Z,12.6
2022-10-17T00:43:59.449Z,12.5
2022-10-17T00:53:59.727Z,12.5
2022-10-17T01:04:00.207Z,12.4
2022-10-17T01:14:00.901Z,12.5
2022-10-17T01:24:01.502Z,12.5
2022-10-17T01:34:01.987Z,12.5
2022-10-17T01:44:02.704Z,12.5
2022-10-17T01:54:02.960Z,12.4
2022-10-17T02:04:03.763Z,12.4
2022-10-17T02:34:05.594Z,12.3
2022-10-17T02:44:05.841Z,12.2
2022-10-17T02:54:05.986Z,12.1
2022-10-17T03:04:06.054Z,12
2022-10-17T03:14:06.826Z,11.9
2022-10-17T03:24:07.528Z,11.9
2022-10-17T03:34:08.463Z,11.9
2022-10-17T03:44:09.093Z,11.8
2022-10-17T03:54:09.867Z,11.7
2022-10-17T04:04:10.275Z,11.7
2022-10-17T04:14:10.489Z,11.6
2022-10-17T04:24:10.630Z,11.6
2022-10-17T04:34:11.548Z,11.7
2022-10-17T04:44:12.425Z,11.7
2022-10-17T05:04:13.586Z,11.6
2022-10-17T05:14:13.660Z,11.6
2022-10-17T05:24:13.676Z,11.7
2022-10-17T05:34:14.590Z,11.7
2022-10-17T05:44:14.736Z,11.7
2022-10-17T05:54:14.897Z,11.6
2022-10-17T06:04:15.158Z,11.6
2022-10-17T06:24:16.360Z,11.8
2022-10-17T06:34:17.412Z,11.8
2022-10-17T06:44:17.902Z,12.3
2022-10-17T06:54:18.711Z,12.8
2022-10-17T07:04:19.676Z,13.2
2022-10-17T07:24:20.262Z,13.4
2022-10-17T07:34:21.118Z,13.8
2022-10-17T07:44:22.106Z,14.2
2022-10-17T07:54:23.147Z,14.8
2022-10-17T08:04:24.096Z,15.6
2022-10-17T08:24:25.111Z,17.6
2022-10-17T08:34:25.301Z,18.6
2022-10-17T08:44:25.535Z,19.2
2022-10-17T08:54:26.392Z,19.5
2022-10-17T09:04:27.205Z,19.5
2022-10-17T09:14:27.410Z,19.7
2022-10-17T09:24:27.501Z,19.9
2022-10-17T09:34:28.074Z,20
2022-10-17T09:44:29.095Z,20
2022-10-17T10:04:30.271Z,20.2
2022-10-17T10:24:31.129Z,20.1
2022-10-17T10:34:30.748Z,20
2022-10-17T10:44:31.186Z,20
2022-10-17T10:54:32.474Z,20
2022-10-17T11:04:33.219Z,20
2022-10-17T11:14:33.541Z,20
2022-10-17T11:24:33.810Z,19.9
2022-10-17T11:54:36.031Z,19.2
2022-10-17T12:04:36.191Z,19
2022-10-17T12:14:36.187Z,18.9
2022-10-17T12:24:36.498Z,19
2022-10-17T12:34:37.430Z,18.9
2022-10-17T12:44:38.055Z,18.8
2022-10-17T12:54:42.204Z,18.8
2022-10-17T13:04:39.449Z,18.8
2022-10-17T13:24:40.217Z,18.9
2022-10-17T13:34:40.623Z,18.9
2022-10-17T13:44:43.403Z,19
2022-10-17T13:54:41.210Z,19.2
2022-10-17T14:05:04.955Z,19.2
2022-10-17T14:15:05.515Z,19.2
2022-10-17T14:24:42.795Z,19.1
2022-10-17T14:44:43.383Z,19.1
2022-10-17T14:54:44.407Z,19.1
2022-10-17T15:04:45.283Z,19.1
2022-10-17T15:14:46.307Z,19
2022-10-17T15:24:47.293Z,19
2022-10-17T15:44:49.132Z,18.8
2022-10-17T16:04:50.176Z,18.6
2022-10-17T16:14:50.323Z,18.5
2022-10-17T16:24:50.651Z,18.3
2022-10-17T16:34:51.103Z,18.1
2022-10-17T16:54:52.349Z,17.7
2022-10-17T17:34:54.356Z,17.1
2022-10-17T17:44:55.384Z,17
2022-10-17T17:54:55.421Z,16.9
2022-10-17T18:04:55.491Z,16.9
2022-10-17T18:14:55.558Z,16.9
2022-10-17T18:24:55.655Z,16.8
2022-10-17T18:34:55.922Z,16.7
2022-10-17T19:04:57.491Z,16.5
2022-10-17T19:14:58.338Z,16.4
2022-10-17T19:24:58.665Z,16.4
2022-10-17T19:34:59.550Z,16.3
2022-10-17T19:45:00.423Z,16.3
2022-10-17T20:15:01.899Z,16.2
2022-10-17T20:25:02.895Z,16.1
2022-10-17T20:35:03.731Z,16.1
2022-10-17T20:45:04.500Z,16
2022-10-17T20:55:04.552Z,16
2022-10-17T21:05:05.290Z,15.9
2022-10-17T21:15:06.209Z,15.9
2022-10-17T21:25:06.620Z,15.8
2022-10-17T21:35:06.951Z,15.8
2022-10-17T21:45:10.798Z,15.7
2022-10-17T21:55:08.360Z,15.6
2022-10-17T22:05:09.185Z,15.6
2022-10-17T22:15:09.469Z,15.5
2022-10-17T22:25:09.494Z,15.4
2022-10-17T22:35:10.110Z,15.4
2022-10-17T22:45:10.376Z,15.3
2022-10-17T22:55:10.859Z,15.3
2022-10-17T23:05:11.092Z,15.2
2022-10-17T23:15:11.506Z,15.1
2022-10-17T23:25:12.016Z,15.1
2022-10-17T23:35:12.233Z,15
2022-10-17T23:45:13.072Z,15
2022-10-17T23:55:13.848Z,14.9
